sensor_id;sensor_type;location;lat;lon;timestamp;P1;durP1;ratioP1;P2;durP2;ratioP2
73841;SDS011;62184;52.006;5.924;2022-07-24T00:01:08;11.82;;;6.35;;
73841;SDS011;62184;52.006;5.924;2022-07-24T00:03:34;10.55;;;6.93;;
73841;SDS011;62184;52.006;5.924;2022-07-24T00:06:03;9.57;;;5.63;;
73841;SDS011;62184;52.006;5.924;2022-07-24T00:08:30;9.80;;;6.00;;
73841;SDS011;62184;52.006;5.924;2022-07-24T00:10:56;11.85;;;6.72;;
73841;SDS011;62184;52.006;5.924;2022-07-24T00:13:23;11.48;;;7.22;;
73841;SDS011;62184;52.006;5.924;2022-07-24T00:15:49;11.95;;;6.25;;
73841;SDS011;62184;52.006;5.924;2022-07-24T00:18:16;11.65;;;6.93;;
73841;SDS011;62184;52.006;5.924;2022-07-24T00:20:42;10.13;;;6.70;;
73841;SDS011;62184;52.006;5.924;2022-07-24T00:23:11;12.18;;;6.57;;
73841;SDS011;62184;52.006;5.924;2022-07-24T00:25:38;11.35;;;7.13;;
73841;SDS011;62184;52.006;5.924;2022-07-24T00:28:04;11.13;;;7.30;;
73841;SDS011;62184;52.006;5.924;2022-07-24T00:30:30;11.75;;;6.63;;
73841;SDS011;62184;52.006;5.924;2022-07-24T00:32:57;10.35;;;7.68;;
73841;SDS011;62184;52.006;5.924;2022-07-24T00:35:23;11.05;;;7.10;;
73841;SDS011;62184;52.006;5.924;2022-07-24T00:37:50;10.68;;;7.18;;
73841;SDS011;62184;52.006;5.924;2022-07-24T00:40:19;11.82;;;7.28;;
73841;SDS011;62184;52.006;5.924;2022-07-24T00:42:46;11.20;;;7.18;;
73841;SDS011;62184;52.006;5.924;2022-07-24T00:45:13;12.25;;;7.57;;
73841;SDS011;62184;52.006;5.924;2022-07-24T00:47:39;11.10;;;7.57;;
73841;SDS011;62184;52.006;5.924;2022-07-24T00:50:06;11.85;;;7.55;;
73841;SDS011;62184;52.006;5.924;2022-07-24T00:52:33;11.60;;;7.47;;
73841;SDS011;62184;52.006;5.924;2022-07-24T00:55:00;12.65;;;7.72;;
73841;SDS011;62184;52.006;5.924;2022-07-24T00:57:29;14.10;;;7.38;;
73841;SDS011;62184;52.006;5.924;2022-07-24T00:59:56;12.32;;;6.93;;
73841;SDS011;62184;52.006;5.924;2022-07-24T01:02:23;11.95;;;7.63;;
73841;SDS011;62184;52.006;5.924;2022-07-24T01:04:50;13.43;;;7.95;;
73841;SDS011;62184;52.006;5.924;2022-07-24T01:07:16;11.40;;;7.75;;
73841;SDS011;62184;52.006;5.924;2022-07-24T01:09:43;10.63;;;6.80;;
73841;SDS011;62184;52.006;5.924;2022-07-24T01:12:10;12.15;;;8.18;;
73841;SDS011;62184;52.006;5.924;2022-07-24T01:14:40;13.65;;;8.27;;
73841;SDS011;62184;52.006;5.924;2022-07-24T01:17:06;11.82;;;7.45;;
73841;SDS011;62184;52.006;5.924;2022-07-24T01:19:33;12.98;;;7.82;;
73841;SDS011;62184;52.006;5.924;2022-07-24T01:22:02;11.95;;;8.55;;
73841;SDS011;62184;52.006;5.924;2022-07-24T01:24:29;12.43;;;7.93;;
73841;SDS011;62184;52.006;5.924;2022-07-24T01:26:56;13.55;;;7.80;;
73841;SDS011;62184;52.006;5.924;2022-07-24T01:29:22;11.30;;;7.38;;
73841;SDS011;62184;52.006;5.924;2022-07-24T01:31:48;12.27;;;7.82;;
73841;SDS011;62184;52.006;5.924;2022-07-24T01:34:15;13.52;;;8.52;;
73841;SDS011;62184;52.006;5.924;2022-07-24T01:36:42;13.85;;;8.13;;
73841;SDS011;62184;52.006;5.924;2022-07-24T01:39:11;11.80;;;7.65;;
73841;SDS011;62184;52.006;5.924;2022-07-24T01:41:38;12.70;;;7.70;;
73841;SDS011;62184;52.006;5.924;2022-07-24T01:44:04;14.02;;;7.90;;
73841;SDS011;62184;52.006;5.924;2022-07-24T01:46:31;13.75;;;7.95;;
73841;SDS011;62184;52.006;5.924;2022-07-24T01:48:57;12.38;;;7.07;;
73841;SDS011;62184;52.006;5.924;2022-07-24T01:51:23;11.70;;;7.60;;
73841;SDS011;62184;52.006;5.924;2022-07-24T01:53:50;13.43;;;8.48;;
73841;SDS011;62184;52.006;5.924;2022-07-24T01:56:19;13.95;;;8.02;;
73841;SDS011;62184;52.006;5.924;2022-07-24T01:58:45;13.60;;;8.10;;
73841;SDS011;62184;52.006;5.924;2022-07-24T02:01:11;13.30;;;8.10;;
73841;SDS011;62184;52.006;5.924;2022-07-24T02:03:38;10.85;;;7.00;;
73841;SDS011;62184;52.006;5.924;2022-07-24T02:06:04;12.85;;;7.95;;
73841;SDS011;62184;52.006;5.924;2022-07-24T02:08:31;12.25;;;7.97;;
73841;SDS011;62184;52.006;5.924;2022-07-24T02:10:58;13.90;;;8.20;;
73841;SDS011;62184;52.006;5.924;2022-07-24T02:13:27;11.65;;;7.20;;
73841;SDS011;62184;52.006;5.924;2022-07-24T02:15:53;15.23;;;8.50;;
73841;SDS011;62184;52.006;5.924;2022-07-24T02:18:19;14.82;;;8.98;;
73841;SDS011;62184;52.006;5.924;2022-07-24T02:20:46;14.52;;;9.05;;
73841;SDS011;62184;52.006;5.924;2022-07-24T02:23:12;15.88;;;9.52;;
73841;SDS011;62184;52.006;5.924;2022-07-24T02:25:38;14.23;;;9.20;;
73841;SDS011;62184;52.006;5.924;2022-07-24T02:28:05;13.27;;;8.77;;
73841;SDS011;62184;52.006;5.924;2022-07-24T02:30:34;13.10;;;8.82;;
73841;SDS011;62184;52.006;5.924;2022-07-24T02:33:00;14.88;;;8.80;;
73841;SDS011;62184;52.006;5.924;2022-07-24T02:35:26;13.93;;;8.98;;
73841;SDS011;62184;52.006;5.924;2022-07-24T02:37:53;14.38;;;8.35;;
73841;SDS011;62184;52.006;5.924;2022-07-24T02:40:19;15.80;;;8.73;;
73841;SDS011;62184;52.006;5.924;2022-07-24T02:42:45;14.88;;;8.50;;
73841;SDS011;62184;52.006;5.924;2022-07-24T02:45:12;14.73;;;8.57;;
73841;SDS011;62184;52.006;5.924;2022-07-24T02:47:48;13.50;;;8.10;;
73841;SDS011;62184;52.006;5.924;2022-07-24T02:50:17;15.52;;;8.40;;
73841;SDS011;62184;52.006;5.924;2022-07-24T02:52:45;14.30;;;9.23;;
73841;SDS011;62184;52.006;5.924;2022-07-24T02:55:12;13.13;;;8.52;;
73841;SDS011;62184;52.006;5.924;2022-07-24T02:57:39;12.57;;;8.25;;
73841;SDS011;62184;52.006;5.924;2022-07-24T03:00:08;13.93;;;8.40;;
73841;SDS011;62184;52.006;5.924;2022-07-24T03:02:38;14.07;;;8.45;;
73841;SDS011;62184;52.006;5.924;2022-07-24T03:05:08;14.20;;;9.38;;
73841;SDS011;62184;52.006;5.924;2022-07-24T03:07:35;14.85;;;9.65;;
73841;SDS011;62184;52.006;5.924;2022-07-24T03:10:02;14.40;;;8.90;;
73841;SDS011;62184;52.006;5.924;2022-07-24T03:12:28;15.77;;;10.13;;
73841;SDS011;62184;52.006;5.924;2022-07-24T03:14:55;16.25;;;9.57;;
73841;SDS011;62184;52.006;5.924;2022-07-24T03:17:21;15.38;;;9.18;;
73841;SDS011;62184;52.006;5.924;2022-07-24T03:19:48;15.02;;;8.65;;
73841;SDS011;62184;52.006;5.924;2022-07-24T03:22:17;13.90;;;8.90;;
73841;SDS011;62184;52.006;5.924;2022-07-24T03:24:43;14.90;;;9.10;;
73841;SDS011;62184;52.006;5.924;2022-07-24T03:27:10;14.43;;;10.10;;
73841;SDS011;62184;52.006;5.924;2022-07-24T03:29:36;14.02;;;9.27;;
73841;SDS011;62184;52.006;5.924;2022-07-24T03:32:02;13.35;;;8.93;;
73841;SDS011;62184;52.006;5.924;2022-07-24T03:34:30;13.87;;;9.27;;
73841;SDS011;62184;52.006;5.924;2022-07-24T03:36:56;15.52;;;8.93;;
73841;SDS011;62184;52.006;5.924;2022-07-24T03:39:25;15.32;;;9.38;;
73841;SDS011;62184;52.006;5.924;2022-07-24T03:41:52;14.93;;;9.40;;
73841;SDS011;62184;52.006;5.924;2022-07-24T03:44:18;15.05;;;9.55;;
73841;SDS011;62184;52.006;5.924;2022-07-24T03:46:44;17.15;;;9.57;;
73841;SDS011;62184;52.006;5.924;2022-07-24T03:49:11;16.48;;;9.88;;
73841;SDS011;62184;52.006;5.924;2022-07-24T03:51:37;16.38;;;10.07;;
73841;SDS011;62184;52.006;5.924;2022-07-24T03:54:04;17.67;;;10.27;;
73841;SDS011;62184;52.006;5.924;2022-07-24T03:56:33;13.27;;;9.23;;
73841;SDS011;62184;52.006;5.924;2022-07-24T03:58:59;17.75;;;9.90;;
73841;SDS011;62184;52.006;5.924;2022-07-24T04:01:26;16.58;;;10.68;;
73841;SDS011;62184;52.006;5.924;2022-07-24T04:03:52;15.02;;;9.90;;
73841;SDS011;62184;52.006;5.924;2022-07-24T04:06:18;16.60;;;10.00;;
73841;SDS011;62184;52.006;5.924;2022-07-24T04:08:45;15.00;;;9.52;;
73841;SDS011;62184;52.006;5.924;2022-07-24T04:11:11;14.50;;;10.13;;
73841;SDS011;62184;52.006;5.924;2022-07-24T04:13:40;16.55;;;10.43;;
73841;SDS011;62184;52.006;5.924;2022-07-24T04:16:07;15.70;;;9.50;;
73841;SDS011;62184;52.006;5.924;2022-07-24T04:18:33;15.43;;;9.88;;
73841;SDS011;62184;52.006;5.924;2022-07-24T04:21:00;15.35;;;9.85;;
73841;SDS011;62184;52.006;5.924;2022-07-24T04:23:26;15.18;;;9.88;;
73841;SDS011;62184;52.006;5.924;2022-07-24T04:25:52;17.15;;;10.80;;
73841;SDS011;62184;52.006;5.924;2022-07-24T04:28:19;17.40;;;11.63;;
73841;SDS011;62184;52.006;5.924;2022-07-24T04:30:48;17.15;;;11.50;;
73841;SDS011;62184;52.006;5.924;2022-07-24T04:33:14;17.58;;;10.77;;
73841;SDS011;62184;52.006;5.924;2022-07-24T04:35:40;15.77;;;10.35;;
73841;SDS011;62184;52.006;5.924;2022-07-24T04:38:07;17.13;;;10.70;;
73841;SDS011;62184;52.006;5.924;2022-07-24T04:40:33;17.65;;;11.30;;
73841;SDS011;62184;52.006;5.924;2022-07-24T04:43:00;20.65;;;11.38;;
73841;SDS011;62184;52.006;5.924;2022-07-24T04:45:26;17.25;;;11.18;;
73841;SDS011;62184;52.006;5.924;2022-07-24T04:47:55;16.88;;;11.30;;
73841;SDS011;62184;52.006;5.924;2022-07-24T04:50:22;16.27;;;10.85;;
73841;SDS011;62184;52.006;5.924;2022-07-24T04:52:48;18.52;;;11.63;;
73841;SDS011;62184;52.006;5.924;2022-07-24T04:55:14;19.88;;;12.20;;
73841;SDS011;62184;52.006;5.924;2022-07-24T04:57:41;18.95;;;11.88;;
73841;SDS011;62184;52.006;5.924;2022-07-24T05:00:09;18.95;;;11.55;;
73841;SDS011;62184;52.006;5.924;2022-07-24T05:02:39;20.77;;;12.77;;
73841;SDS011;62184;52.006;5.924;2022-07-24T05:05:09;19.83;;;12.85;;
73841;SDS011;62184;52.006;5.924;2022-07-24T05:07:36;22.80;;;13.57;;
73841;SDS011;62184;52.006;5.924;2022-07-24T05:10:02;21.60;;;12.73;;
73841;SDS011;62184;52.006;5.924;2022-07-24T05:12:30;20.20;;;12.45;;
73841;SDS011;62184;52.006;5.924;2022-07-24T05:14:57;19.45;;;13.50;;
73841;SDS011;62184;52.006;5.924;2022-07-24T05:17:23;19.85;;;13.75;;
73841;SDS011;62184;52.006;5.924;2022-07-24T05:19:49;20.52;;;14.00;;
73841;SDS011;62184;52.006;5.924;2022-07-24T05:22:18;20.63;;;13.18;;
73841;SDS011;62184;52.006;5.924;2022-07-24T05:24:44;20.27;;;13.77;;
73841;SDS011;62184;52.006;5.924;2022-07-24T05:27:11;20.80;;;14.45;;
73841;SDS011;62184;52.006;5.924;2022-07-24T05:29:37;21.13;;;14.25;;
73841;SDS011;62184;52.006;5.924;2022-07-24T05:32:04;22.50;;;14.70;;
73841;SDS011;62184;52.006;5.924;2022-07-24T05:34:31;23.55;;;14.50;;
73841;SDS011;62184;52.006;5.924;2022-07-24T05:36:58;24.70;;;14.88;;
73841;SDS011;62184;52.006;5.924;2022-07-24T05:39:27;23.10;;;16.23;;
73841;SDS011;62184;52.006;5.924;2022-07-24T05:41:53;21.63;;;15.07;;
73841;SDS011;62184;52.006;5.924;2022-07-24T05:44:19;25.55;;;16.02;;
73841;SDS011;62184;52.006;5.924;2022-07-24T05:46:46;23.80;;;15.57;;
73841;SDS011;62184;52.006;5.924;2022-07-24T05:49:13;25.13;;;16.90;;
73841;SDS011;62184;52.006;5.924;2022-07-24T05:51:39;26.00;;;15.40;;
73841;SDS011;62184;52.006;5.924;2022-07-24T05:54:05;24.92;;;16.27;;
73841;SDS011;62184;52.006;5.924;2022-07-24T05:56:34;27.90;;;17.65;;
73841;SDS011;62184;52.006;5.924;2022-07-24T05:59:01;25.88;;;16.73;;
73841;SDS011;62184;52.006;5.924;2022-07-24T06:01:27;25.65;;;16.27;;
73841;SDS011;62184;52.006;5.924;2022-07-24T06:03:54;25.92;;;15.60;;
73841;SDS011;62184;52.006;5.924;2022-07-24T06:06:20;24.10;;;16.05;;
73841;SDS011;62184;52.006;5.924;2022-07-24T06:08:47;24.88;;;16.35;;
73841;SDS011;62184;52.006;5.924;2022-07-24T06:11:13;24.35;;;16.45;;
73841;SDS011;62184;52.006;5.924;2022-07-24T06:13:42;26.08;;;15.75;;
73841;SDS011;62184;52.006;5.924;2022-07-24T06:16:09;22.48;;;14.43;;
73841;SDS011;62184;52.006;5.924;2022-07-24T06:18:35;23.65;;;15.15;;
73841;SDS011;62184;52.006;5.924;2022-07-24T06:21:02;23.40;;;15.00;;
73841;SDS011;62184;52.006;5.924;2022-07-24T06:23:28;21.75;;;14.18;;
73841;SDS011;62184;52.006;5.924;2022-07-24T06:25:55;19.55;;;12.25;;
73841;SDS011;62184;52.006;5.924;2022-07-24T06:28:21;21.00;;;13.75;;
73841;SDS011;62184;52.006;5.924;2022-07-24T06:30:50;23.55;;;13.02;;
73841;SDS011;62184;52.006;5.924;2022-07-24T06:33:16;24.02;;;13.07;;
73841;SDS011;62184;52.006;5.924;2022-07-24T06:35:43;20.10;;;13.57;;
73841;SDS011;62184;52.006;5.924;2022-07-24T06:38:09;21.95;;;13.02;;
73841;SDS011;62184;52.006;5.924;2022-07-24T06:40:36;19.33;;;11.77;;
73841;SDS011;62184;52.006;5.924;2022-07-24T06:43:02;20.38;;;12.15;;
73841;SDS011;62184;52.006;5.924;2022-07-24T06:45:29;20.92;;;12.85;;
73841;SDS011;62184;52.006;5.924;2022-07-24T06:47:58;20.00;;;11.82;;
73841;SDS011;62184;52.006;5.924;2022-07-24T06:50:25;16.50;;;10.38;;
73841;SDS011;62184;52.006;5.924;2022-07-24T06:52:51;17.40;;;12.07;;
73841;SDS011;62184;52.006;5.924;2022-07-24T06:55:17;16.73;;;11.20;;
73841;SDS011;62184;52.006;5.924;2022-07-24T06:57:44;19.23;;;10.30;;
73841;SDS011;62184;52.006;5.924;2022-07-24T07:00:11;17.77;;;10.93;;
73841;SDS011;62184;52.006;5.924;2022-07-24T07:02:38;15.55;;;10.40;;
73841;SDS011;62184;52.006;5.924;2022-07-24T07:05:08;16.10;;;10.77;;
73841;SDS011;62184;52.006;5.924;2022-07-24T07:07:36;19.63;;;10.27;;
73841;SDS011;62184;52.006;5.924;2022-07-24T07:10:03;14.43;;;10.05;;
73841;SDS011;62184;52.006;5.924;2022-07-24T07:12:31;15.27;;;9.77;;
73841;SDS011;62184;52.006;5.924;2022-07-24T07:14:58;15.05;;;9.23;;
73841;SDS011;62184;52.006;5.924;2022-07-24T07:17:24;17.80;;;9.80;;
73841;SDS011;62184;52.006;5.924;2022-07-24T07:19:51;14.30;;;9.02;;
73841;SDS011;62184;52.006;5.924;2022-07-24T07:22:20;12.52;;;7.97;;
73841;SDS011;62184;52.006;5.924;2022-07-24T07:24:47;12.50;;;7.57;;
73841;SDS011;62184;52.006;5.924;2022-07-24T07:27:13;11.77;;;7.13;;
73841;SDS011;62184;52.006;5.924;2022-07-24T07:29:40;11.98;;;7.85;;
73841;SDS011;62184;52.006;5.924;2022-07-24T07:32:06;13.20;;;7.20;;
73841;SDS011;62184;52.006;5.924;2022-07-24T07:34:32;12.75;;;7.47;;
73841;SDS011;62184;52.006;5.924;2022-07-24T07:36:59;12.02;;;7.15;;
73841;SDS011;62184;52.006;5.924;2022-07-24T07:39:28;12.53;;;6.83;;
73841;SDS011;62184;52.006;5.924;2022-07-24T07:41:54;10.00;;;6.47;;
73841;SDS011;62184;52.006;5.924;2022-07-24T07:44:21;11.30;;;6.30;;
73841;SDS011;62184;52.006;5.924;2022-07-24T07:46:47;9.38;;;5.65;;
73841;SDS011;62184;52.006;5.924;2022-07-24T07:49:13;10.02;;;4.85;;
73841;SDS011;62184;52.006;5.924;2022-07-24T07:51:40;9.93;;;5.43;;
73841;SDS011;62184;52.006;5.924;2022-07-24T07:54:06;9.05;;;5.47;;
73841;SDS011;62184;52.006;5.924;2022-07-24T07:56:35;8.68;;;4.78;;
73841;SDS011;62184;52.006;5.924;2022-07-24T07:59:01;8.57;;;4.32;;
73841;SDS011;62184;52.006;5.924;2022-07-24T08:01:28;7.85;;;4.10;;
73841;SDS011;62184;52.006;5.924;2022-07-24T08:03:54;8.73;;;4.67;;
73841;SDS011;62184;52.006;5.924;2022-07-24T08:06:21;8.13;;;4.63;;
73841;SDS011;62184;52.006;5.924;2022-07-24T08:08:47;8.85;;;4.22;;
73841;SDS011;62184;52.006;5.924;2022-07-24T08:11:14;7.47;;;3.97;;
73841;SDS011;62184;52.006;5.924;2022-07-24T08:13:43;8.38;;;4.30;;
73841;SDS011;62184;52.006;5.924;2022-07-24T08:16:10;7.87;;;3.70;;
73841;SDS011;62184;52.006;5.924;2022-07-24T08:18:36;9.65;;;4.65;;
73841;SDS011;62184;52.006;5.924;2022-07-24T08:21:03;6.95;;;3.80;;
73841;SDS011;62184;52.006;5.924;2022-07-24T08:23:29;6.63;;;3.50;;
73841;SDS011;62184;52.006;5.924;2022-07-24T08:25:56;6.40;;;3.58;;
73841;SDS011;62184;52.006;5.924;2022-07-24T08:28:22;6.73;;;3.80;;
73841;SDS011;62184;52.006;5.924;2022-07-24T08:30:52;7.45;;;3.88;;
73841;SDS011;62184;52.006;5.924;2022-07-24T08:33:18;6.80;;;3.78;;
73841;SDS011;62184;52.006;5.924;2022-07-24T08:35:45;7.15;;;4.18;;
73841;SDS011;62184;52.006;5.924;2022-07-24T08:38:12;6.30;;;3.78;;
73841;SDS011;62184;52.006;5.924;2022-07-24T08:40:38;7.13;;;3.67;;
73841;SDS011;62184;52.006;5.924;2022-07-24T08:43:06;7.30;;;3.85;;
73841;SDS011;62184;52.006;5.924;2022-07-24T08:45:35;7.95;;;4.05;;
73841;SDS011;62184;52.006;5.924;2022-07-24T08:48:08;7.85;;;4.30;;
73841;SDS011;62184;52.006;5.924;2022-07-24T08:50:37;7.85;;;4.40;;
73841;SDS011;62184;52.006;5.924;2022-07-24T08:53:05;7.20;;;4.10;;
73841;SDS011;62184;52.006;5.924;2022-07-24T08:55:33;7.25;;;4.38;;
73841;SDS011;62184;52.006;5.924;2022-07-24T08:58:00;7.65;;;4.38;;
73841;SDS011;62184;52.006;5.924;2022-07-24T09:00:29;8.52;;;4.85;;
73841;SDS011;62184;52.006;5.924;2022-07-24T09:02:57;7.40;;;4.53;;
73841;SDS011;62184;52.006;5.924;2022-07-24T09:05:26;7.67;;;4.30;;
73841;SDS011;62184;52.006;5.924;2022-07-24T09:08:05;7.57;;;4.40;;
73841;SDS011;62184;52.006;5.924;2022-07-24T09:10:35;6.78;;;4.32;;
73841;SDS011;62184;52.006;5.924;2022-07-24T09:13:11;6.43;;;3.85;;
73841;SDS011;62184;52.006;5.924;2022-07-24T09:15:43;6.90;;;4.25;;
73841;SDS011;62184;52.006;5.924;2022-07-24T09:18:24;8.00;;;3.77;;
73841;SDS011;62184;52.006;5.924;2022-07-24T09:20:57;6.30;;;3.78;;
73841;SDS011;62184;52.006;5.924;2022-07-24T09:23:25;5.32;;;3.20;;
73841;SDS011;62184;52.006;5.924;2022-07-24T09:25:52;6.00;;;3.38;;
73841;SDS011;62184;52.006;5.924;2022-07-24T09:28:20;6.15;;;3.17;;
73841;SDS011;62184;52.006;5.924;2022-07-24T09:30:47;5.20;;;2.73;;
73841;SDS011;62184;52.006;5.924;2022-07-24T09:33:15;6.57;;;2.80;;
73841;SDS011;62184;52.006;5.924;2022-07-24T09:35:45;5.38;;;2.60;;
73841;SDS011;62184;52.006;5.924;2022-07-24T09:38:17;5.43;;;3.17;;
73841;SDS011;62184;52.006;5.924;2022-07-24T09:40:46;6.35;;;3.22;;
73841;SDS011;62184;52.006;5.924;2022-07-24T09:43:18;6.17;;;2.80;;
73841;SDS011;62184;52.006;5.924;2022-07-24T09:45:53;6.10;;;3.40;;
73841;SDS011;62184;52.006;5.924;2022-07-24T09:48:24;8.07;;;3.90;;
73841;SDS011;62184;52.006;5.924;2022-07-24T09:50:53;6.82;;;3.38;;
73841;SDS011;62184;52.006;5.924;2022-07-24T09:53:25;5.93;;;3.03;;
73841;SDS011;62184;52.006;5.924;2022-07-24T09:55:57;5.53;;;3.60;;
73841;SDS011;62184;52.006;5.924;2022-07-24T09:58:30;5.30;;;3.50;;
73841;SDS011;62184;52.006;5.924;2022-07-24T10:00:59;6.00;;;3.20;;
73841;SDS011;62184;52.006;5.924;2022-07-24T10:03:27;6.68;;;3.63;;
73841;SDS011;62184;52.006;5.924;2022-07-24T10:05:56;6.30;;;3.17;;
73841;SDS011;62184;52.006;5.924;2022-07-24T10:08:28;5.80;;;3.70;;
73841;SDS011;62184;52.006;5.924;2022-07-24T10:10:55;5.30;;;3.10;;
73841;SDS011;62184;52.006;5.924;2022-07-24T10:13:24;5.85;;;3.63;;
73841;SDS011;62184;52.006;5.924;2022-07-24T10:15:52;5.95;;;4.00;;
73841;SDS011;62184;52.006;5.924;2022-07-24T10:18:43;5.43;;;3.08;;
73841;SDS011;62184;52.006;5.924;2022-07-24T10:21:15;5.17;;;2.97;;
73841;SDS011;62184;52.006;5.924;2022-07-24T10:27:03;5.80;;;3.13;;
73841;SDS011;62184;52.006;5.924;2022-07-24T10:29:40;4.80;;;3.00;;
73841;SDS011;62184;52.006;5.924;2022-07-24T10:32:08;5.45;;;3.20;;
73841;SDS011;62184;52.006;5.924;2022-07-24T10:34:38;7.43;;;3.60;;
73841;SDS011;62184;52.006;5.924;2022-07-24T10:37:15;5.90;;;3.35;;
73841;SDS011;62184;52.006;5.924;2022-07-24T10:39:58;4.70;;;2.60;;
73841;SDS011;62184;52.006;5.924;2022-07-24T10:45:36;5.95;;;2.80;;
73841;SDS011;62184;52.006;5.924;2022-07-24T10:51:00;4.90;;;2.97;;
73841;SDS011;62184;52.006;5.924;2022-07-24T10:53:30;4.93;;;2.80;;
73841;SDS011;62184;52.006;5.924;2022-07-24T10:56:22;5.93;;;3.55;;
73841;SDS011;62184;52.006;5.924;2022-07-24T10:58:56;5.70;;;3.42;;
73841;SDS011;62184;52.006;5.924;2022-07-24T11:01:29;5.30;;;3.30;;
73841;SDS011;62184;52.006;5.924;2022-07-24T11:04:03;7.30;;;3.15;;
73841;SDS011;62184;52.006;5.924;2022-07-24T11:06:51;6.30;;;3.00;;
73841;SDS011;62184;52.006;5.924;2022-07-24T11:09:20;6.00;;;3.00;;
73841;SDS011;62184;52.006;5.924;2022-07-24T11:12:06;5.65;;;2.90;;
73841;SDS011;62184;52.006;5.924;2022-07-24T11:20:06;6.93;;;3.10;;
73841;SDS011;62184;52.006;5.924;2022-07-24T11:22:39;4.85;;;2.97;;
73841;SDS011;62184;52.006;5.924;2022-07-24T11:25:13;4.78;;;2.90;;
73841;SDS011;62184;52.006;5.924;2022-07-24T11:27:46;6.30;;;3.03;;
73841;SDS011;62184;52.006;5.924;2022-07-24T11:30:20;5.20;;;3.17;;
73841;SDS011;62184;52.006;5.924;2022-07-24T11:32:46;5.65;;;3.20;;
73841;SDS011;62184;52.006;5.924;2022-07-24T11:35:13;5.70;;;3.42;;
73841;SDS011;62184;52.006;5.924;2022-07-24T11:37:41;5.28;;;3.33;;
73841;SDS011;62184;52.006;5.924;2022-07-24T11:40:11;5.53;;;2.97;;
73841;SDS011;62184;52.006;5.924;2022-07-24T11:42:41;6.13;;;3.13;;
73841;SDS011;62184;52.006;5.924;2022-07-24T11:45:10;5.65;;;3.25;;
73841;SDS011;62184;52.006;5.924;2022-07-24T11:47:37;7.28;;;3.33;;
73841;SDS011;62184;52.006;5.924;2022-07-24T11:50:05;5.75;;;2.97;;
73841;SDS011;62184;52.006;5.924;2022-07-24T11:52:34;5.30;;;3.20;;
73841;SDS011;62184;52.006;5.924;2022-07-24T11:55:04;5.38;;;3.42;;
73841;SDS011;62184;52.006;5.924;2022-07-24T11:57:34;5.82;;;2.97;;
73841;SDS011;62184;52.006;5.924;2022-07-24T12:00:04;6.05;;;3.45;;
73841;SDS011;62184;52.006;5.924;2022-07-24T12:02:36;5.53;;;3.28;;
73841;SDS011;62184;52.006;5.924;2022-07-24T12:05:03;5.20;;;2.73;;
73841;SDS011;62184;52.006;5.924;2022-07-24T12:07:30;7.78;;;3.70;;
73841;SDS011;62184;52.006;5.924;2022-07-24T12:09:59;6.72;;;3.47;;
73841;SDS011;62184;52.006;5.924;2022-07-24T12:12:26;5.68;;;2.80;;
73841;SDS011;62184;52.006;5.924;2022-07-24T12:15:02;5.75;;;3.20;;
73841;SDS011;62184;52.006;5.924;2022-07-24T12:17:33;5.17;;;2.80;;
73841;SDS011;62184;52.006;5.924;2022-07-24T12:20:22;6.55;;;3.20;;
73841;SDS011;62184;52.006;5.924;2022-07-24T12:22:51;5.82;;;2.85;;
73841;SDS011;62184;52.006;5.924;2022-07-24T12:25:18;6.30;;;3.28;;
73841;SDS011;62184;52.006;5.924;2022-07-24T12:27:46;6.53;;;3.50;;
73841;SDS011;62184;52.006;5.924;2022-07-24T12:30:20;5.47;;;2.80;;
73841;SDS011;62184;52.006;5.924;2022-07-24T12:32:55;5.85;;;3.35;;
73841;SDS011;62184;52.006;5.924;2022-07-24T12:35:28;6.07;;;3.25;;
73841;SDS011;62184;52.006;5.924;2022-07-24T12:37:57;9.68;;;3.67;;
73841;SDS011;62184;52.006;5.924;2022-07-24T12:40:29;5.55;;;3.42;;
73841;SDS011;62184;52.006;5.924;2022-07-24T12:43:00;5.87;;;3.20;;
73841;SDS011;62184;52.006;5.924;2022-07-24T12:45:32;6.43;;;3.08;;
73841;SDS011;62184;52.006;5.924;2022-07-24T12:48:09;5.65;;;2.88;;
73841;SDS011;62184;52.006;5.924;2022-07-24T12:53:28;5.68;;;3.08;;
73841;SDS011;62184;52.006;5.924;2022-07-24T12:56:04;5.07;;;2.97;;
73841;SDS011;62184;52.006;5.924;2022-07-24T13:01:24;6.20;;;2.58;;
73841;SDS011;62184;52.006;5.924;2022-07-24T13:03:58;5.15;;;2.60;;
73841;SDS011;62184;52.006;5.924;2022-07-24T13:06:31;17.73;;;3.55;;
73841;SDS011;62184;52.006;5.924;2022-07-24T13:09:03;45.17;;;5.33;;
73841;SDS011;62184;52.006;5.924;2022-07-24T13:11:31;6.35;;;2.90;;
73841;SDS011;62184;52.006;5.924;2022-07-24T13:13:58;4.53;;;2.50;;
73841;SDS011;62184;52.006;5.924;2022-07-24T13:16:26;5.30;;;3.10;;
73841;SDS011;62184;52.006;5.924;2022-07-24T13:18:58;6.10;;;2.92;;
73841;SDS011;62184;52.006;5.924;2022-07-24T13:21:26;4.73;;;2.50;;
73841;SDS011;62184;52.006;5.924;2022-07-24T13:23:53;5.28;;;2.50;;
73841;SDS011;62184;52.006;5.924;2022-07-24T13:26:21;4.95;;;2.72;;
73841;SDS011;62184;52.006;5.924;2022-07-24T13:28:48;5.43;;;3.00;;
73841;SDS011;62184;52.006;5.924;2022-07-24T13:31:14;5.13;;;3.00;;
73841;SDS011;62184;52.006;5.924;2022-07-24T13:33:41;5.97;;;3.23;;
73841;SDS011;62184;52.006;5.924;2022-07-24T13:36:10;5.40;;;2.50;;
73841;SDS011;62184;52.006;5.924;2022-07-24T13:38:37;5.40;;;2.47;;
73841;SDS011;62184;52.006;5.924;2022-07-24T13:41:04;6.28;;;2.40;;
73841;SDS011;62184;52.006;5.924;2022-07-24T13:43:30;4.65;;;2.58;;
73841;SDS011;62184;52.006;5.924;2022-07-24T13:45:57;5.63;;;2.53;;
73841;SDS011;62184;52.006;5.924;2022-07-24T13:48:23;5.97;;;2.50;;
73841;SDS011;62184;52.006;5.924;2022-07-24T13:50:50;4.43;;;2.40;;
73841;SDS011;62184;52.006;5.924;2022-07-24T13:53:19;5.93;;;2.67;;
73841;SDS011;62184;52.006;5.924;2022-07-24T13:55:45;4.57;;;2.75;;
73841;SDS011;62184;52.006;5.924;2022-07-24T13:58:12;4.73;;;2.70;;
73841;SDS011;62184;52.006;5.924;2022-07-24T14:00:38;5.88;;;2.83;;
73841;SDS011;62184;52.006;5.924;2022-07-24T14:03:05;5.43;;;2.40;;
73841;SDS011;62184;52.006;5.924;2022-07-24T14:05:31;6.82;;;2.75;;
73841;SDS011;62184;52.006;5.924;2022-07-24T14:07:58;4.55;;;2.60;;
73841;SDS011;62184;52.006;5.924;2022-07-24T14:10:29;4.20;;;2.00;;
73841;SDS011;62184;52.006;5.924;2022-07-24T14:12:56;5.00;;;2.63;;
73841;SDS011;62184;52.006;5.924;2022-07-24T14:15:22;4.50;;;2.55;;
73841;SDS011;62184;52.006;5.924;2022-07-24T14:17:49;4.80;;;3.03;;
73841;SDS011;62184;52.006;5.924;2022-07-24T14:20:15;5.03;;;2.50;;
73841;SDS011;62184;52.006;5.924;2022-07-24T14:22:42;4.70;;;2.77;;
73841;SDS011;62184;52.006;5.924;2022-07-24T14:25:09;4.35;;;2.42;;
73841;SDS011;62184;52.006;5.924;2022-07-24T14:27:38;4.60;;;2.10;;
73841;SDS011;62184;52.006;5.924;2022-07-24T14:30:05;4.78;;;2.40;;
73841;SDS011;62184;52.006;5.924;2022-07-24T14:32:33;5.20;;;2.67;;
73841;SDS011;62184;52.006;5.924;2022-07-24T14:35:00;4.93;;;2.63;;
73841;SDS011;62184;52.006;5.924;2022-07-24T14:37:27;5.07;;;2.63;;
73841;SDS011;62184;52.006;5.924;2022-07-24T14:39:53;5.20;;;2.83;;
73841;SDS011;62184;52.006;5.924;2022-07-24T14:42:19;6.43;;;2.85;;
73841;SDS011;62184;52.006;5.924;2022-07-24T14:44:49;4.88;;;2.63;;
73841;SDS011;62184;52.006;5.924;2022-07-24T14:47:15;4.80;;;2.90;;
73841;SDS011;62184;52.006;5.924;2022-07-24T14:49:42;5.15;;;2.83;;
73841;SDS011;62184;52.006;5.924;2022-07-24T14:52:08;21.50;;;3.50;;
73841;SDS011;62184;52.006;5.924;2022-07-24T14:54:35;4.75;;;2.20;;
73841;SDS011;62184;52.006;5.924;2022-07-24T14:57:01;4.43;;;2.65;;
73841;SDS011;62184;52.006;5.924;2022-07-24T14:59:27;4.33;;;2.30;;
73841;SDS011;62184;52.006;5.924;2022-07-24T15:01:56;4.70;;;2.25;;
73841;SDS011;62184;52.006;5.924;2022-07-24T15:04:23;4.30;;;2.50;;